Time;durP1;ratioP1;P1;durP2;ratioP2;P2;SDS_P1;SDS_P2;PMS_P1;PMS_P2;Temp;Humidity;BMP_temperature;BMP_pressure;BME280_temperature;BME280_humidity;BME280_pressure;Samples;Min_cycle;Max_cycle;Signal;HPM_P1;HPM_P2
2022/06/30 00:00:29;;;;;;;6.45;5.88;;;19.90;99.90;;;;;;5021642;28;20040;-85
2022/06/30 00:02:54;;;;;;;6.80;5.90;;;19.90;99.90;;;;;;5018540;28;20408;-84
2022/06/30 00:05:20;;;;;;;7.80;6.20;;;19.90;99.90;;;;;;5018353;28;20087;-85
2022/06/30 00:07:46;;;;;;;7.30;6.57;;;19.90;99.90;;;;;;5020424;28;20056;-85
2022/06/30 00:10:11;;;;;;;8.05;6.97;;;19.90;99.90;;;;;;5020799;28;20425;-85
2022/06/30 00:12:38;;;;;;;7.47;6.78;;;19.80;99.90;;;;;;5020782;28;20065;-84
2022/06/30 00:15:04;;;;;;;7.38;6.60;;;19.80;99.90;;;;;;5019039;28;20107;-85
2022/06/30 00:17:30;;;;;;;8.18;7.38;;;19.80;99.90;;;;;;5020197;28;20060;-85
2022/06/30 00:19:55;;;;;;;13.77;7.68;;;19.70;99.90;;;;;;5019708;28;20042;-84
2022/06/30 00:22:21;;;;;;;7.38;6.78;;;19.70;99.90;;;;;;5020008;28;20125;-85
2022/06/30 00:24:47;;;;;;;7.80;7.00;;;19.70;99.90;;;;;;5020819;28;20045;-84
2022/06/30 00:27:12;;;;;;;11.30;7.43;;;19.70;99.90;;;;;;5020660;28;20511;-84
2022/06/30 00:29:38;;;;;;;7.93;6.00;;;19.70;99.90;;;;;;5021030;28;20045;-84
2022/06/30 00:32:05;;;;;;;7.18;6.22;;;19.70;99.90;;;;;;5019946;28;20145;-84
2022/06/30 00:34:30;;;;;;;9.70;7.53;;;19.70;99.90;;;;;;5017872;28;20503;-84
2022/06/30 00:36:56;;;;;;;8.02;5.97;;;19.70;99.90;;;;;;5019037;28;20060;-84
2022/06/30 00:39:22;;;;;;;6.53;6.03;;;19.70;99.90;;;;;;5020486;28;20044;-85
2022/06/30 00:41:47;;;;;;;8.23;7.40;;;19.60;99.90;;;;;;5018905;28;20049;-84
2022/06/30 00:44:13;;;;;;;6.65;5.97;;;19.60;99.90;;;;;;5019605;28;20049;-84
2022/06/30 00:46:39;;;;;;;7.47;5.57;;;19.60;99.90;;;;;;5021255;28;20053;-84
2022/06/30 00:49:06;;;;;;;5.38;4.97;;;19.50;99.90;;;;;;5017721;28;20073;-84
2022/06/30 00:51:32;;;;;;;5.38;4.88;;;19.50;99.90;;;;;;5020272;28;20049;-84
2022/06/30 00:54:01;;;;;;;5.53;5.00;;;19.50;99.90;;;;;;5019584;28;20063;-84
2022/06/30 00:56:29;;;;;;;6.72;6.03;;;19.40;99.90;;;;;;5021190;28;20041;-84
2022/06/30 00:59:00;;;;;;;8.45;6.50;;;19.40;99.90;;;;;;5019737;28;20052;-84
2022/06/30 01:01:26;;;;;;;5.53;4.90;;;19.40;99.90;;;;;;5019287;28;20084;-84
2022/06/30 01:03:55;;;;;;;6.85;5.63;;;19.40;99.90;;;;;;5019041;28;20069;-84
2022/06/30 01:06:22;;;;;;;5.60;5.00;;;19.40;99.90;;;;;;5019535;28;20139;-84
2022/06/30 01:08:49;;;;;;;5.10;4.60;;;19.30;99.90;;;;;;5018862;28;20520;-84
2022/06/30 01:14:01;;;;;;;4.88;4.28;;;19.30;99.90;;;;;;5000800;28;20076;-84
2022/06/30 01:16:27;;;;;;;5.45;4.95;;;19.20;99.90;;;;;;5000792;28;20037;-84
2022/06/30 01:18:53;;;;;;;4.78;4.38;;;19.30;99.90;;;;;;5021596;28;20092;-85
2022/06/30 01:21:18;;;;;;;7.05;4.57;;;19.20;99.90;;;;;;5023825;28;20037;-84
2022/06/30 01:23:44;;;;;;;6.10;4.93;;;19.20;99.90;;;;;;5021745;28;20099;-84
2022/06/30 01:26:10;;;;;;;5.05;4.00;;;19.20;99.90;;;;;;5024776;28;20514;-83
2022/06/30 01:28:36;;;;;;;5.18;4.75;;;19.20;99.90;;;;;;5023583;28;20120;-84
2022/06/30 01:31:01;;;;;;;5.63;4.60;;;19.20;99.90;;;;;;5023803;28;20175;-84
2022/06/30 01:33:27;;;;;;;5.47;4.47;;;19.20;99.90;;;;;;5022253;28;20495;-84
2022/06/30 01:35:55;;;;;;;8.50;5.32;;;19.10;99.90;;;;;;5023202;28;20049;-84
2022/06/30 01:38:21;;;;;;;4.88;4.28;;;19.10;99.90;;;;;;5022692;28;20077;-84
2022/06/30 01:40:47;;;;;;;5.95;5.25;;;19.10;99.90;;;;;;5024124;28;20081;-85
2022/06/30 01:43:13;;;;;;;6.68;5.38;;;19.10;99.90;;;;;;5023863;28;20041;-84
2022/06/30 01:45:40;;;;;;;6.28;3.97;;;19.00;99.90;;;;;;5022165;28;20064;-84
2022/06/30 01:48:06;;;;;;;4.10;3.67;;;19.00;99.90;;;;;;5021959;28;20026;-84
2022/06/30 01:50:32;;;;;;;5.65;4.82;;;19.00;99.90;;;;;;5022243;28;20041;-84
2022/06/30 01:52:59;;;;;;;4.47;4.03;;;19.00;99.90;;;;;;5022846;28;20056;-84
2022/06/30 01:55:25;;;;;;;4.00;3.65;;;19.00;99.90;;;;;;5021759;28;20037;-84
2022/06/30 01:57:52;;;;;;;4.53;3.90;;;19.10;99.90;;;;;;5022478;28;20404;-84
2022/06/30 02:00:21;;;;;;;5.13;3.40;;;19.10;99.90;;;;;;5023556;28;20099;-84
2022/06/30 02:02:48;;;;;;;4.38;3.95;;;19.10;99.90;;;;;;5022065;28;20041;-84
2022/06/30 02:05:14;;;;;;;4.35;3.70;;;19.10;99.90;;;;;;5022728;28;20679;-81
2022/06/30 02:07:40;;;;;;;4.35;3.58;;;19.20;99.90;;;;;;5023046;28;20462;-84
2022/06/30 02:10:11;;;;;;;5.13;3.60;;;19.10;99.90;;;;;;5021634;28;20434;-85
2022/06/30 02:12:46;;;;;;;7.50;4.70;;;19.10;99.90;;;;;;5021628;28;20073;-84
2022/06/30 02:15:15;;;;;;;4.25;3.70;;;19.10;99.90;;;;;;5021482;28;20041;-85
2022/06/30 02:17:41;;;;;;;3.95;3.55;;;19.10;99.90;;;;;;5022975;28;20045;-85
2022/06/30 02:20:08;;;;;;;4.53;3.95;;;19.10;99.90;;;;;;5022500;28;20049;-84
2022/06/30 02:22:35;;;;;;;5.57;3.83;;;19.10;99.90;;;;;;5022254;28;20470;-84
2022/06/30 02:25:00;;;;;;;5.22;4.50;;;19.10;99.90;;;;;;5020802;28;20095;-84
2022/06/30 02:27:26;;;;;;;5.28;4.55;;;19.10;99.90;;;;;;5023293;28;20034;-85
2022/06/30 02:29:52;;;;;;;4.95;4.32;;;19.10;99.90;;;;;;5021247;28;20060;-85
2022/06/30 02:32:19;;;;;;;10.82;3.95;;;19.10;99.90;;;;;;5021566;28;20095;-84
2022/06/30 02:34:45;;;;;;;5.28;4.63;;;19.10;99.90;;;;;;5022304;28;20041;-84
2022/06/30 02:37:10;;;;;;;4.57;4.22;;;19.10;99.90;;;;;;5022519;28;20538;-85
2022/06/30 02:39:36;;;;;;;4.47;4.10;;;19.00;99.90;;;;;;5022634;28;20452;-85
2022/06/30 02:42:02;;;;;;;6.35;4.03;;;19.00;99.90;;;;;;5022271;28;20049;-84
2022/06/30 02:44:27;;;;;;;4.63;4.22;;;19.00;99.90;;;;;;5021531;28;20049;-85
2022/06/30 02:46:54;;;;;;;3.92;3.53;;;19.00;99.90;;;;;;5019795;28;20137;-85
2022/06/30 02:49:21;;;;;;;5.43;3.63;;;19.00;99.90;;;;;;5022325;28;20045;-85
2022/06/30 02:51:47;;;;;;;7.43;3.95;;;19.00;99.90;;;;;;5021768;28;20488;-85
2022/06/30 02:54:12;;;;;;;3.83;3.53;;;19.00;99.90;;;;;;5022170;28;20044;-84
2022/06/30 02:56:38;;;;;;;3.90;3.60;;;18.90;99.90;;;;;;5022112;28;20094;-84
2022/06/30 02:59:04;;;;;;;3.22;2.92;;;18.90;99.90;;;;;;5021509;28;20693;-84
2022/06/30 03:01:29;;;;;;;3.92;3.47;;;18.90;99.90;;;;;;5021234;28;20098;-84
2022/06/30 03:03:55;;;;;;;3.08;2.78;;;18.90;99.90;;;;;;5020436;28;20041;-84
2022/06/30 03:06:20;;;;;;;3.50;3.15;;;18.90;99.90;;;;;;5021904;28;20049;-85
2022/06/30 03:08:46;;;;;;;5.20;2.67;;;18.90;99.90;;;;;;5021457;28;20037;-85
2022/06/30 03:11:16;;;;;;;4.18;3.80;;;18.80;99.90;;;;;;5021701;28;20043;-84
2022/06/30 03:13:45;;;;;;;5.80;3.35;;;18.80;99.90;;;;;;5020798;28;20475;-84
2022/06/30 03:16:11;;;;;;;3.10;2.80;;;18.80;99.90;;;;;;5022712;28;20042;-84
2022/06/30 03:18:37;;;;;;;4.53;3.20;;;18.70;99.90;;;;;;5020822;28;20156;-84
2022/06/30 03:21:03;;;;;;;2.65;2.45;;;18.70;99.90;;;;;;5021919;28;20210;-84
2022/06/30 03:23:28;;;;;;;7.90;3.70;;;18.70;99.90;;;;;;5019965;28;20121;-84
2022/06/30 03:25:54;;;;;;;3.28;2.97;;;18.60;99.90;;;;;;5021116;28;20046;-84
2022/06/30 03:28:19;;;;;;;3.15;2.65;;;18.60;99.90;;;;;;5021555;28;20065;-84
2022/06/30 03:30:47;;;;;;;4.22;3.60;;;18.60;99.90;;;;;;5020832;28;20081;-83
2022/06/30 03:33:14;;;;;;;3.13;2.55;;;18.60;99.90;;;;;;5021046;28;20412;-84
2022/06/30 03:35:39;;;;;;;5.78;3.85;;;18.60;99.90;;;;;;5021983;28;20092;-84
2022/06/30 03:38:06;;;;;;;4.10;3.40;;;18.60;99.90;;;;;;5021384;28;20069;-85
2022/06/30 03:40:32;;;;;;;3.20;2.95;;;18.50;99.90;;;;;;5020682;28;20073;-84
2022/06/30 03:42:58;;;;;;;3.28;2.70;;;18.50;99.90;;;;;;5021979;28;20265;-84
2022/06/30 03:45:24;;;;;;;4.57;4.13;;;18.50;99.90;;;;;;5020505;28;20484;-84
2022/06/30 03:47:50;;;;;;;3.72;3.42;;;18.50;99.90;;;;;;5020489;28;20515;-85
2022/06/30 03:50:15;;;;;;;3.15;2.88;;;18.50;99.90;;;;;;5019772;28;20080;-85
2022/06/30 03:52:41;;;;;;;4.00;2.53;;;18.50;99.90;;;;;;5021409;28;20115;-85
2022/06/30 03:55:07;;;;;;;4.88;3.58;;;18.50;99.90;;;;;;5020831;28;20103;-84
2022/06/30 03:57:33;;;;;;;3.03;2.83;;;18.50;99.90;;;;;;5020880;28;20060;-85
2022/06/30 03:59:58;;;;;;;4.10;3.13;;;18.50;99.90;;;;;;5020537;28;20050;-84
2022/06/30 04:02:24;;;;;;;3.70;3.35;;;18.50;99.90;;;;;;5020003;28;20115;-84
2022/06/30 04:04:49;;;;;;;5.65;3.53;;;18.50;99.90;;;;;;5019225;28;20037;-85
2022/06/30 04:07:15;;;;;;;3.40;2.78;;;18.50;99.90;;;;;;5021160;28;20056;-86
2022/06/30 04:09:41;;;;;;;3.17;2.70;;;18.60;99.90;;;;;;5019679;28;20045;-84
2022/06/30 04:12:06;;;;;;;2.95;2.28;;;18.60;99.90;;;;;;5018979;28;20048;-84
2022/06/30 04:14:32;;;;;;;4.32;2.70;;;18.60;99.90;;;;;;5020832;28;20124;-85
2022/06/30 04:16:57;;;;;;;2.75;2.55;;;18.70;99.90;;;;;;5020091;28;20048;-84
2022/06/30 04:19:23;;;;;;;2.80;2.60;;;18.70;99.90;;;;;;5020236;28;20507;-84
2022/06/30 04:21:49;;;;;;;5.50;2.40;;;18.70;99.90;;;;;;5021001;28;20044;-86
2022/06/30 04:24:15;;;;;;;3.90;3.60;;;18.70;99.90;;;;;;5020796;28;20175;-84
2022/06/30 04:26:40;;;;;;;3.22;2.92;;;18.80;99.90;;;;;;5019787;28;20520;-85
2022/06/30 04:29:06;;;;;;;2.85;2.65;;;18.80;99.90;;;;;;5020471;28;20041;-85
2022/06/30 04:34:16;;;;;;;4.28;3.55;;;18.80;99.90;;;;;;5001651;28;20056;-84
2022/06/30 04:36:41;;;;;;;3.08;2.78;;;18.80;99.90;;;;;;5008335;28;20527;-84
2022/06/30 04:39:07;;;;;;;4.13;2.97;;;18.80;99.90;;;;;;5020290;28;20405;-85
2022/06/30 04:41:32;;;;;;;3.05;2.85;;;18.80;99.90;;;;;;5020372;28;20077;-85
2022/06/30 04:44:00;;;;;;;4.95;3.47;;;18.80;99.90;;;;;;5020428;28;20125;-85
2022/06/30 04:46:26;;;;;;;2.80;2.60;;;18.80;99.90;;;;;;5020198;28;20563;-86
2022/06/30 04:48:53;;;;;;;4.22;3.08;;;18.90;99.90;;;;;;5020226;28;20042;-84
2022/06/30 04:51:19;;;;;;;3.50;3.20;;;18.90;99.90;;;;;;5020346;28;20050;-87
2022/06/30 04:53:45;;;;;;;7.13;3.33;;;18.90;99.90;;;;;;5019834;28;20045;-81
2022/06/30 04:56:12;;;;;;;3.08;2.78;;;18.90;99.90;;;;;;5023868;28;20052;-86
2022/06/30 04:58:38;;;;;;;2.53;2.33;;;18.90;99.90;;;;;;5023474;28;20113;-83
2022/06/30 05:01:04;;;;;;;3.13;2.80;;;18.90;99.90;;;;;;5024140;28;20215;-81
2022/06/30 05:03:31;;;;;;;3.42;3.22;;;18.90;99.90;;;;;;5019575;28;20091;-81
2022/06/30 05:05:57;;;;;;;3.50;3.03;;;18.90;99.90;;;;;;5019958;28;20749;-79
2022/06/30 05:08:23;;;;;;;3.83;3.05;;;18.90;99.90;;;;;;5027572;28;20129;-81
2022/06/30 05:10:49;;;;;;;5.47;3.03;;;18.90;99.90;;;;;;5023968;28;20124;-80
2022/06/30 05:13:16;;;;;;;3.13;2.83;;;18.90;99.90;;;;;;5023639;28;20037;-80
2022/06/30 05:15:44;;;;;;;2.63;2.42;;;18.90;99.90;;;;;;5022827;28;20145;-80
2022/06/30 05:18:09;;;;;;;3.15;2.95;;;18.90;99.90;;;;;;5023320;28;20535;-80
2022/06/30 05:20:35;;;;;;;4.45;2.85;;;18.90;99.90;;;;;;5024337;28;20128;-80
2022/06/30 05:23:00;;;;;;;3.90;3.35;;;19.00;99.90;;;;;;5022725;28;20049;-80
2022/06/30 05:28:10;;;;;;;2.45;2.25;;;19.00;99.90;;;;;;5026481;28;20095;-80
2022/06/30 05:30:36;;;;;;;5.55;3.70;;;19.10;99.90;;;;;;5023901;28;20049;-81
2022/06/30 05:33:02;;;;;;;3.20;2.90;;;19.10;99.90;;;;;;5022700;28;20403;-80
2022/06/30 05:35:27;;;;;;;4.05;3.58;;;19.10;99.90;;;;;;5023167;28;20076;-82
2022/06/30 05:37:53;;;;;;;4.35;3.20;;;19.10;99.90;;;;;;5020852;28;20144;-81
2022/06/30 05:40:18;;;;;;;4.10;3.55;;;19.10;99.90;;;;;;5013718;28;20042;-82
2022/06/30 05:42:44;;;;;;;3.78;3.47;;;19.20;99.90;;;;;;5022733;28;20036;-80
2022/06/30 05:45:10;;;;;;;3.33;3.03;;;19.20;99.90;;;;;;5022533;28;20102;-81
2022/06/30 05:47:50;;;;;;;3.67;2.95;;;19.30;99.90;;;;;;5003116;28;20559;-81
2022/06/30 05:50:17;;;;;;;5.88;4.07;;;19.30;99.90;;;;;;5021429;28;20025;-82
2022/06/30 05:52:44;;;;;;;3.28;2.88;;;19.30;99.90;;;;;;5022571;28;20221;-82
2022/06/30 05:55:10;;;;;;;3.10;2.85;;;19.30;99.90;;;;;;5017197;28;20076;-79
2022/06/30 05:57:48;;;;;;;3.05;2.85;;;19.30;99.90;;;;;;5020544;28;20523;-79
2022/06/30 06:00:14;;;;;;;2.55;2.35;;;19.40;99.90;;;;;;5022451;28;20050;-77
2022/06/30 06:02:39;;;;;;;3.92;2.67;;;19.40;99.90;;;;;;5021937;28;20051;-79
2022/06/30 06:05:05;;;;;;;5.85;3.25;;;19.40;99.90;;;;;;5021468;28;20242;-79
2022/06/30 06:07:30;;;;;;;4.65;3.63;;;19.40;99.90;;;;;;5019863;28;20079;-79
2022/06/30 06:09:56;;;;;;;4.53;3.25;;;19.50;99.90;;;;;;5019937;28;20048;-79
2022/06/30 06:12:22;;;;;;;4.10;3.53;;;19.50;99.90;;;;;;5013876;28;20078;-79
2022/06/30 06:14:48;;;;;;;3.22;2.92;;;19.50;99.90;;;;;;5012467;28;20528;-79
2022/06/30 06:17:14;;;;;;;8.43;3.63;;;19.50;99.90;;;;;;5021530;28;20052;-78
2022/06/30 06:19:41;;;;;;;3.88;3.47;;;19.60;99.90;;;;;;5021599;28;20095;-79
2022/06/30 06:22:07;;;;;;;3.75;3.20;;;19.60;99.90;;;;;;5021458;28;20397;-79
2022/06/30 06:24:32;;;;;;;3.85;3.55;;;19.70;99.90;;;;;;5021496;28;20544;-79
2022/06/30 06:26:58;;;;;;;3.45;3.05;;;19.60;99.90;;;;;;5020189;28;20048;-79
2022/06/30 06:29:23;;;;;;;3.75;3.40;;;19.60;99.90;;;;;;5020740;28;20044;-80
2022/06/30 06:31:49;;;;;;;7.00;3.78;;;19.70;99.90;;;;;;5019890;28;20072;-79
2022/06/30 06:34:14;;;;;;;3.40;2.83;;;19.80;99.90;;;;;;5021537;28;20048;-79
2022/06/30 06:36:40;;;;;;;4.03;3.63;;;19.80;99.90;;;;;;5021925;28;20037;-79
2022/06/30 06:39:06;;;;;;;4.25;3.85;;;19.80;99.90;;;;;;5021719;28;20049;-79
2022/06/30 06:41:32;;;;;;;4.35;3.47;;;19.80;99.90;;;;;;5021023;28;20041;-79
2022/06/30 06:43:58;;;;;;;4.15;3.63;;;19.90;99.90;;;;;;5019416;28;20088;-79
2022/06/30 06:46:27;;;;;;;4.18;3.85;;;19.90;99.90;;;;;;5002497;28;20073;-79
2022/06/30 06:48:55;;;;;;;5.47;4.10;;;20.00;99.90;;;;;;5017393;28;20033;-79
2022/06/30 06:51:20;;;;;;;4.70;4.30;;;20.00;99.90;;;;;;5021356;28;20041;-78
2022/06/30 06:53:46;;;;;;;7.22;4.65;;;20.00;99.90;;;;;;5021348;28;20494;-79
2022/06/30 06:56:12;;;;;;;4.95;3.53;;;20.00;99.90;;;;;;5020681;28;20037;-79
2022/06/30 06:58:37;;;;;;;6.40;3.78;;;20.10;99.90;;;;;;5019646;28;20048;-79
2022/06/30 07:01:04;;;;;;;6.20;4.07;;;20.10;99.90;;;;;;5020244;28;20386;-79
2022/06/30 07:03:31;;;;;;;4.90;3.90;;;20.10;99.90;;;;;;5019711;28;20175;-78
2022/06/30 07:05:58;;;;;;;5.30;4.00;;;20.20;99.90;;;;;;5005471;28;20050;-79
2022/06/30 07:08:24;;;;;;;5.40;3.75;;;20.20;99.90;;;;;;5013737;28;20073;-79
2022/06/30 07:10:49;;;;;;;7.05;4.63;;;20.20;99.90;;;;;;5018947;28;20511;-78
2022/06/30 07:13:15;;;;;;;4.70;4.30;;;20.30;99.90;;;;;;5019275;28;20065;-78
2022/06/30 07:15:40;;;;;;;5.05;4.57;;;20.30;99.90;;;;;;5018224;28;20137;-79
2022/06/30 07:18:06;;;;;;;5.32;4.65;;;20.30;99.90;;;;;;5010611;28;20037;-79
2022/06/30 07:20:32;;;;;;;8.68;4.82;;;20.30;99.90;;;;;;5018892;28;20057;-79
2022/06/30 07:22:57;;;;;;;6.72;5.03;;;20.40;99.90;;;;;;5019140;28;20487;-79
2022/06/30 07:25:23;;;;;;;4.18;3.40;;;20.40;99.90;;;;;;5020275;28;20042;-78
2022/06/30 07:27:48;;;;;;;7.68;4.95;;;20.40;99.90;;;;;;5019207;28;20044;-79
2022/06/30 07:30:14;;;;;;;4.82;3.97;;;20.50;99.90;;;;;;5020427;28;20463;-79
2022/06/30 07:32:40;;;;;;;4.18;3.80;;;20.50;99.90;;;;;;5019600;28;20117;-79
2022/06/30 07:35:07;;;;;;;6.05;5.40;;;20.50;99.90;;;;;;5020227;28;20459;-79
2022/06/30 07:37:40;;;;;;;5.63;5.05;;;20.60;99.90;;;;;;5019798;28;20046;-79
2022/06/30 07:40:06;;;;;;;6.97;5.80;;;20.60;99.90;;;;;;5020057;28;20241;-79
2022/06/30 07:42:32;;;;;;;5.47;4.53;;;20.70;99.90;;;;;;5017763;28;20783;-79
2022/06/30 07:44:58;;;;;;;5.00;4.28;;;20.70;99.90;;;;;;5018070;28;20258;-78
2022/06/30 07:47:23;;;;;;;6.22;4.45;;;20.80;99.90;;;;;;5019640;28;20044;-78
2022/06/30 07:49:49;;;;;;;7.03;4.80;;;20.80;99.90;;;;;;5015951;28;20519;-79
2022/06/30 07:52:15;;;;;;;6.25;5.05;;;20.80;99.90;;;;;;5019222;28;20049;-79
2022/06/30 07:54:40;;;;;;;6.35;5.18;;;20.90;99.90;;;;;;5020407;28;20045;-79
2022/06/30 07:57:06;;;;;;;5.90;5.25;;;20.90;99.90;;;;;;5018975;28;20048;-79
2022/06/30 07:59:32;;;;;;;5.60;4.93;;;21.00;99.90;;;;;;5018919;28;20038;-79
2022/06/30 08:01:58;;;;;;;4.68;3.78;;;21.10;99.90;;;;;;5019020;28;20521;-79
2022/06/30 08:04:24;;;;;;;7.18;5.07;;;21.10;99.90;;;;;;4999681;28;20057;-80
2022/06/30 08:06:49;;;;;;;6.93;5.93;;;21.10;99.90;;;;;;5016669;28;20058;-79
2022/06/30 08:09:15;;;;;;;7.40;5.65;;;21.20;99.90;;;;;;5014770;28;20037;-79
2022/06/30 08:11:41;;;;;;;6.50;5.90;;;21.20;99.90;;;;;;5019534;28;20656;-78
2022/06/30 08:14:06;;;;;;;7.55;5.78;;;21.30;99.90;;;;;;5018965;28;20555;-79
2022/06/30 08:16:32;;;;;;;7.82;5.97;;;21.30;99.90;;;;;;5018696;28;20045;-81
2022/06/30 08:18:58;;;;;;;7.55;6.25;;;21.30;99.90;;;;;;5017758;28;20334;-78
2022/06/30 08:21:23;;;;;;;9.02;6.35;;;21.40;99.90;;;;;;5014527;28;20464;-79
2022/06/30 08:23:49;;;;;;;10.23;7.30;;;21.40;99.90;;;;;;5009710;28;20052;-79
2022/06/30 08:26:14;;;;;;;7.47;6.05;;;21.40;99.90;;;;;;5016506;28;20037;-79
2022/06/30 08:28:40;;;;;;;7.43;6.07;;;21.50;99.90;;;;;;5022643;28;20187;-79
2022/06/30 08:31:05;;;;;;;6.22;5.65;;;21.50;99.90;;;;;;5021802;28;20052;-79
2022/06/30 08:33:31;;;;;;;7.90;6.97;;;21.50;99.90;;;;;;5004959;28;20033;-79
2022/06/30 08:35:57;;;;;;;9.23;7.88;;;21.60;99.90;;;;;;5023143;28;20042;-79
2022/06/30 08:38:22;;;;;;;9.32;6.78;;;21.60;99.90;;;;;;5023617;28;20044;-79
2022/06/30 08:43:33;;;;;;;7.88;5.88;;;21.70;99.90;;;;;;5023800;28;20084;-79
2022/06/30 08:46:01;;;;;;;6.93;5.78;;;21.70;99.90;;;;;;5020784;28;20041;-79
2022/06/30 08:48:30;;;;;;;7.22;6.50;;;21.80;99.90;;;;;;5024015;28;20049;-80
2022/06/30 08:51:04;;;;;;;14.02;6.20;;;21.90;99.90;;;;;;5005677;28;20042;-79
2022/06/30 08:53:37;;;;;;;7.90;6.22;;;21.90;99.90;;;;;;5022862;28;20041;-79
2022/06/30 08:56:04;;;;;;;7.13;6.43;;;22.00;99.90;;;;;;5021560;28;20041;-79
2022/06/30 08:58:30;;;;;;;8.05;6.25;;;22.00;99.90;;;;;;5023191;28;20088;-80
2022/06/30 09:00:56;;;;;;;6.38;5.47;;;22.10;99.90;;;;;;5004235;28;20041;-79
2022/06/30 09:03:22;;;;;;;9.50;6.30;;;22.20;99.90;;;;;;5024000;28;20496;-79
2022/06/30 09:05:47;;;;;;;7.68;6.97;;;22.20;99.90;;;;;;5022082;28;20080;-79
2022/06/30 09:08:14;;;;;;;10.05;8.07;;;22.20;99.90;;;;;;5022319;28;20578;-79
2022/06/30 09:10:50;;;;;;;8.88;7.50;;;22.20;99.90;;;;;;5022735;28;20042;-82
2022/06/30 09:13:17;;;;;;;6.97;6.20;;;22.20;99.90;;;;;;5005856;28;20523;-81
2022/06/30 09:15:42;;;;;;;7.60;6.88;;;22.20;99.90;;;;;;5002369;28;20042;-81
2022/06/30 09:18:21;;;;;;;10.35;6.45;;;22.20;99.90;;;;;;5003378;28;20073;-80
2022/06/30 09:20:47;;;;;;;10.70;9.05;;;22.20;99.90;;;;;;5002923;28;20326;-79
2022/06/30 09:23:27;;;;;;;11.27;8.45;;;22.30;99.90;;;;;;5003029;28;20049;-81
2022/06/30 09:25:55;;;;;;;11.95;8.43;;;22.30;99.90;;;;;;5002286;28;20090;-80
2022/06/30 09:28:54;;;;;;;9.93;8.30;;;22.40;99.90;;;;;;5008172;28;20080;-81
2022/06/30 09:31:42;;;;;;;8.15;7.35;;;22.40;99.90;;;;;;5011353;28;20077;-80
2022/06/30 09:34:16;;;;;;;9.63;7.93;;;22.50;99.90;;;;;;5012060;28;20604;-80
2022/06/30 09:36:42;;;;;;;10.50;7.38;;;22.50;99.90;;;;;;5006760;28;20061;-79
2022/06/30 09:39:10;;;;;;;11.13;8.13;;;22.60;99.90;;;;;;5009061;28;20049;-81
2022/06/30 09:41:41;;;;;;;12.55;7.93;;;22.60;99.90;;;;;;5010484;28;20037;-80
2022/06/30 09:44:18;;;;;;;10.40;9.10;;;22.70;99.90;;;;;;5012509;28;20061;-81
2022/06/30 09:47:01;;;;;;;11.35;9.00;;;22.70;99.90;;;;;;5017654;28;20516;-80
2022/06/30 09:49:32;;;;;;;11.35;9.63;;;22.70;99.90;;;;;;5010086;28;20533;-81
2022/06/30 09:51:59;;;;;;;11.02;9.85;;;22.70;99.90;;;;;;5012147;28;20516;-81
2022/06/30 09:54:26;;;;;;;19.50;11.75;;;22.70;99.90;;;;;;5010621;28;20041;-81
2022/06/30 09:57:06;;;;;;;16.17;9.98;;;22.70;99.90;;;;;;5012667;28;20030;-82
2022/06/30 09:59:33;;;;;;;13.35;9.25;;;22.70;99.90;;;;;;5012470;28;20034;-80
2022/06/30 10:01:59;;;;;;;13.25;9.68;;;22.70;99.90;;;;;;4992418;28;20041;-81
2022/06/30 10:04:26;;;;;;;9.45;8.50;;;22.70;99.90;;;;;;5009574;28;20050;-80
2022/06/30 10:06:54;;;;;;;12.85;10.25;;;22.70;99.90;;;;;;5013368;28;20042;-81
2022/06/30 10:09:20;;;;;;;11.18;8.45;;;22.60;99.90;;;;;;5024321;28;20056;-79
2022/06/30 10:11:46;;;;;;;9.80;7.20;;;22.60;99.90;;;;;;5023691;28;20041;-80
2022/06/30 10:14:15;;;;;;;8.05;6.32;;;22.60;99.90;;;;;;5019924;28;20041;-81
2022/06/30 10:16:42;;;;;;;7.70;6.93;;;22.60;99.90;;;;;;5007965;28;20037;-81
2022/06/30 10:19:12;;;;;;;8.23;6.90;;;22.60;99.90;;;;;;5020290;28;20077;-84
2022/06/30 10:21:39;;;;;;;8.98;6.47;;;22.60;99.90;;;;;;5021891;28;20577;-84
2022/06/30 10:24:06;;;;;;;9.73;8.38;;;22.70;99.90;;;;;;5022922;28;20037;-84
2022/06/30 10:29:17;;;;;;;9.52;7.00;;;22.70;99.90;;;;;;5002061;28;20056;-84
2022/06/30 10:31:54;;;;;;;8.88;7.78;;;22.70;99.90;;;;;;5019859;28;20045;-85
2022/06/30 10:34:24;;;;;;;7.22;5.75;;;22.70;99.90;;;;;;5021590;28;20542;-84
2022/06/30 10:37:03;;;;;;;9.05;7.40;;;22.70;99.90;;;;;;5022489;28;20040;-84
2022/06/30 10:39:47;;;;;;;9.48;7.10;;;22.70;99.90;;;;;;5022130;28;20034;-83
2022/06/30 10:42:40;;;;;;;7.75;6.40;;;22.70;99.90;;;;;;5022835;28;20119;-83
2022/06/30 10:45:26;;;;;;;10.00;6.95;;;22.70;99.90;;;;;;5001797;28;20149;-83
2022/06/30 10:47:56;;;;;;;10.40;7.18;;;22.70;99.90;;;;;;4999760;28;20042;-84
2022/06/30 10:50:35;;;;;;;9.02;6.72;;;22.70;99.90;;;;;;5006653;28;20034;-83
2022/06/30 10:53:03;;;;;;;9.60;7.22;;;22.70;99.90;;;;;;5009517;28;20135;-83
2022/06/30 10:55:40;;;;;;;11.30;7.72;;;22.70;99.90;;;;;;5011740;28;20036;-85
2022/06/30 10:58:07;;;;;;;7.75;6.20;;;22.70;99.90;;;;;;5013430;28;20091;-84
2022/06/30 11:00:42;;;;;;;13.40;9.30;;;22.80;99.90;;;;;;5008678;28;20264;-82
2022/06/30 11:03:07;;;;;;;9.43;7.43;;;22.70;99.90;;;;;;5008156;28;20245;-83
2022/06/30 11:05:33;;;;;;;9.45;7.82;;;22.80;99.90;;;;;;5011867;28;20412;-85
2022/06/30 11:08:36;;;;;;;9.23;6.97;;;22.80;99.90;;;;;;4991614;28;20171;-85
2022/06/30 11:11:40;;;;;;;9.00;7.00;;;22.70;99.90;;;;;;5007618;28;20073;-85
2022/06/30 11:14:07;;;;;;;8.05;6.65;;;22.70;99.90;;;;;;5008462;28;20105;-84
2022/06/30 11:16:35;;;;;;;8.70;6.72;;;22.70;99.90;;;;;;5008784;28;20376;-85
2022/06/30 11:19:01;;;;;;;12.68;6.57;;;22.70;99.90;;;;;;5008423;28;20038;-87
2022/06/30 11:21:31;;;;;;;6.82;5.88;;;22.70;99.90;;;;;;5010219;28;20038;-85
2022/06/30 11:24:00;;;;;;;6.82;5.32;;;22.70;99.90;;;;;;5010363;28;20326;-85
2022/06/30 11:29:18;;;;;;;8.25;5.32;;;22.70;99.90;;;;;;4986943;28;20050;-83
2022/06/30 11:31:44;;;;;;;8.93;5.57;;;22.70;99.90;;;;;;5007794;28;20049;-85
2022/06/30 11:34:15;;;;;;;7.20;4.47;;;22.70;99.90;;;;;;5007889;28;20417;-84
2022/06/30 11:36:43;;;;;;;8.65;6.05;;;22.70;99.90;;;;;;5024827;28;20052;-85
2022/06/30 11:39:18;;;;;;;6.45;5.28;;;22.70;99.90;;;;;;4991975;28;20546;-84
2022/06/30 11:41:59;;;;;;;9.25;6.45;;;22.60;99.90;;;;;;5009016;28;20056;-86
2022/06/30 11:44:38;;;;;;;5.20;4.45;;;22.70;99.90;;;;;;5008865;28;20535;-84
2022/06/30 11:47:16;;;;;;;5.65;4.80;;;22.70;99.90;;;;;;5007427;28;20523;-86
2022/06/30 11:49:51;;;;;;;4.95;3.97;;;22.60;99.90;;;;;;5004185;28;20081;-85
2022/06/30 11:52:29;;;;;;;8.82;4.47;;;22.60;99.90;;;;;;5001218;28;20394;-84
2022/06/30 11:54:57;;;;;;;8.23;4.95;;;22.70;99.90;;;;;;5032488;28;20055;-83
2022/06/30 11:57:24;;;;;;;6.90;4.30;;;22.60;99.90;;;;;;5020953;28;20052;-84
2022/06/30 11:59:52;;;;;;;4.00;3.60;;;22.60;99.90;;;;;;5021468;28;20081;-84
2022/06/30 12:02:18;;;;;;;5.13;4.25;;;22.60;99.90;;;;;;5019032;28;20311;-85
2022/06/30 12:04:49;;;;;;;5.35;4.78;;;22.60;99.90;;;;;;5020681;28;20048;-86
2022/06/30 12:07:15;;;;;;;5.97;4.28;;;22.60;99.90;;;;;;5016012;28;20065;-85
2022/06/30 12:09:42;;;;;;;5.63;4.63;;;22.60;99.90;;;;;;5000707;28;20049;-86
2022/06/30 12:12:09;;;;;;;7.75;5.10;;;22.60;99.90;;;;;;5011577;28;20116;-83
2022/06/30 12:14:38;;;;;;;5.47;5.05;;;22.60;99.90;;;;;;5005333;28;20041;-85
2022/06/30 12:17:05;;;;;;;6.70;4.32;;;22.60;99.90;;;;;;5018293;28;20579;-85
2022/06/30 12:19:31;;;;;;;7.35;4.97;;;22.50;99.90;;;;;;5018681;28;20109;-86
2022/06/30 12:21:57;;;;;;;4.60;4.07;;;22.50;99.90;;;;;;5007360;28;20057;-86
2022/06/30 12:24:24;;;;;;;7.10;3.22;;;22.50;99.90;;;;;;5009466;28;20045;-87
2022/06/30 12:26:55;;;;;;;4.47;3.72;;;22.50;99.90;;;;;;5007413;28;20045;-86
2022/06/30 12:29:23;;;;;;;4.85;4.30;;;22.50;99.90;;;;;;5009382;28;20042;-85
2022/06/30 12:32:03;;;;;;;4.18;3.03;;;22.50;99.90;;;;;;5007214;28;20046;-86
2022/06/30 12:34:29;;;;;;;3.78;3.30;;;22.50;99.90;;;;;;5015698;28;20068;-86
2022/06/30 12:37:03;;;;;;;3.58;2.70;;;22.50;99.90;;;;;;5020087;28;20058;-85
2022/06/30 12:39:32;;;;;;;3.97;3.65;;;22.50;99.90;;;;;;5014604;28;20123;-86
2022/06/30 12:42:06;;;;;;;3.63;3.25;;;22.50;99.90;;;;;;5002414;28;20038;-85
2022/06/30 12:44:36;;;;;;;4.85;4.40;;;22.50;99.90;;;;;;5010010;28;20053;-87
2022/06/30 12:47:04;;;;;;;4.32;3.55;;;22.60;99.90;;;;;;5008566;28;20045;-86
2022/06/30 12:49:30;;;;;;;3.38;3.08;;;22.50;99.90;;;;;;5010750;28;20041;-84
2022/06/30 12:51:55;;;;;;;6.72;4.70;;;22.50;99.90;;;;;;5009412;28;20033;-84
2022/06/30 12:54:26;;;;;;;4.45;4.05;;;22.50;99.90;;;;;;5011818;28;20034;-84
2022/06/30 12:57:04;;;;;;;8.18;4.40;;;22.50;99.90;;;;;;5009800;28;20072;-81
2022/06/30 12:59:30;;;;;;;3.72;3.42;;;22.50;99.90;;;;;;5009892;28;20060;-82
2022/06/30 13:02:00;;;;;;;4.00;3.60;;;22.50;99.90;;;;;;5006530;28;20766;-81
2022/06/30 13:04:31;;;;;;;5.30;2.85;;;22.50;99.90;;;;;;5009502;28;20076;-83